Terminal Aerodrome Forecast
Issued by NWS

Current Version | Previous Version | Text Only | Print | Product List | Glossary Off
Versions: 1 2 3 4 5 6 7 8 9 10 11 12 13 14 15 16 17 18

000
FTUS41 KPBZ 251458 AAA
TAFMGW
TAF AMD
KMGW 251458Z 2515/2612 24008KT P6SM SCT040
     FM251800 27012KT P6SM BKN060
     FM260100 30004KT P6SM SCT040=

USA.gov is the U.S. government's official web portal to all federal, state and local government web resources and services.